sensor_id;sensor_type;location;lat;lon;timestamp;P1;durP1;ratioP1;P2;durP2;ratioP2
80255;SDS011;69564;37.974;23.708;2023-04-23T00:01:55;4.93;;;4.43;;
80255;SDS011;69564;37.974;23.708;2023-04-23T00:04:22;6.55;;;4.93;;
80255;SDS011;69564;37.974;23.708;2023-04-23T00:06:50;6.95;;;4.40;;
80255;SDS011;69564;37.974;23.708;2023-04-23T00:09:16;5.85;;;4.30;;
80255;SDS011;69564;37.974;23.708;2023-04-23T00:11:43;5.93;;;4.85;;
80255;SDS011;69564;37.974;23.708;2023-04-23T00:14:09;5.43;;;4.40;;
80255;SDS011;69564;37.974;23.708;2023-04-23T00:16:35;5.03;;;4.53;;
80255;SDS011;69564;37.974;23.708;2023-04-23T00:19:01;4.80;;;4.30;;
80255;SDS011;69564;37.974;23.708;2023-04-23T00:21:27;5.30;;;4.38;;
80255;SDS011;69564;37.974;23.708;2023-04-23T00:23:53;4.55;;;3.92;;
80255;SDS011;69564;37.974;23.708;2023-04-23T00:26:19;5.45;;;4.07;;
80255;SDS011;69564;37.974;23.708;2023-04-23T00:28:45;4.25;;;3.85;;
80255;SDS011;69564;37.974;23.708;2023-04-23T00:31:10;4.57;;;4.18;;
80255;SDS011;69564;37.974;23.708;2023-04-23T00:33:36;5.50;;;4.57;;
80255;SDS011;69564;37.974;23.708;2023-04-23T00:36:02;4.20;;;3.85;;
80255;SDS011;69564;37.974;23.708;2023-04-23T00:38:28;4.38;;;3.88;;
80255;SDS011;69564;37.974;23.708;2023-04-23T00:40:54;5.65;;;3.90;;
80255;SDS011;69564;37.974;23.708;2023-04-23T00:43:20;4.70;;;3.97;;
80255;SDS011;69564;37.974;23.708;2023-04-23T00:45:46;5.05;;;4.07;;
80255;SDS011;69564;37.974;23.708;2023-04-23T00:48:12;3.83;;;3.53;;
80255;SDS011;69564;37.974;23.708;2023-04-23T00:50:38;4.18;;;3.80;;
80255;SDS011;69564;37.974;23.708;2023-04-23T00:53:05;4.22;;;3.78;;
80255;SDS011;69564;37.974;23.708;2023-04-23T00:55:31;4.53;;;4.13;;
80255;SDS011;69564;37.974;23.708;2023-04-23T00:57:57;4.88;;;4.32;;
80255;SDS011;69564;37.974;23.708;2023-04-23T01:00:24;5.57;;;4.03;;
80255;SDS011;69564;37.974;23.708;2023-04-23T01:02:51;3.78;;;3.47;;
80255;SDS011;69564;37.974;23.708;2023-04-23T01:05:17;6.13;;;4.13;;
80255;SDS011;69564;37.974;23.708;2023-04-23T01:07:45;4.93;;;3.80;;
80255;SDS011;69564;37.974;23.708;2023-04-23T01:10:11;5.40;;;4.57;;
80255;SDS011;69564;37.974;23.708;2023-04-23T01:12:38;4.80;;;3.97;;
80255;SDS011;69564;37.974;23.708;2023-04-23T01:15:04;5.15;;;4.20;;
80255;SDS011;69564;37.974;23.708;2023-04-23T01:17:31;6.95;;;4.20;;
80255;SDS011;69564;37.974;23.708;2023-04-23T01:19:58;4.38;;;3.95;;
80255;SDS011;69564;37.974;23.708;2023-04-23T01:22:24;4.90;;;3.75;;
80255;SDS011;69564;37.974;23.708;2023-04-23T01:24:49;4.35;;;3.95;;
80255;SDS011;69564;37.974;23.708;2023-04-23T01:27:16;4.78;;;3.47;;
80255;SDS011;69564;37.974;23.708;2023-04-23T01:29:44;4.60;;;4.20;;
80255;SDS011;69564;37.974;23.708;2023-04-23T01:32:11;4.18;;;3.80;;
80255;SDS011;69564;37.974;23.708;2023-04-23T01:34:37;5.97;;;4.05;;
80255;SDS011;69564;37.974;23.708;2023-04-23T01:37:03;5.60;;;4.63;;
80255;SDS011;69564;37.974;23.708;2023-04-23T01:39:29;4.60;;;3.72;;
80255;SDS011;69564;37.974;23.708;2023-04-23T01:41:55;5.18;;;3.70;;
80255;SDS011;69564;37.974;23.708;2023-04-23T01:44:21;4.22;;;3.83;;
80255;SDS011;69564;37.974;23.708;2023-04-23T01:46:47;5.57;;;4.53;;
80255;SDS011;69564;37.974;23.708;2023-04-23T01:49:13;6.82;;;3.85;;
80255;SDS011;69564;37.974;23.708;2023-04-23T01:51:38;5.68;;;4.25;;
80255;SDS011;69564;37.974;23.708;2023-04-23T01:54:04;6.30;;;3.90;;
80255;SDS011;69564;37.974;23.708;2023-04-23T01:56:30;4.70;;;4.05;;
80255;SDS011;69564;37.974;23.708;2023-04-23T01:58:58;8.05;;;4.38;;
80255;SDS011;69564;37.974;23.708;2023-04-23T02:01:23;4.63;;;4.10;;
80255;SDS011;69564;37.974;23.708;2023-04-23T02:03:49;4.55;;;3.90;;
80255;SDS011;69564;37.974;23.708;2023-04-23T02:06:15;5.50;;;4.18;;
80255;SDS011;69564;37.974;23.708;2023-04-23T02:08:41;5.70;;;4.28;;
80255;SDS011;69564;37.974;23.708;2023-04-23T02:11:07;4.88;;;4.18;;
80255;SDS011;69564;37.974;23.708;2023-04-23T02:13:33;5.32;;;4.30;;
80255;SDS011;69564;37.974;23.708;2023-04-23T02:15:59;6.03;;;4.10;;
80255;SDS011;69564;37.974;23.708;2023-04-23T02:18:25;6.03;;;4.97;;
80255;SDS011;69564;37.974;23.708;2023-04-23T02:20:50;5.32;;;4.40;;
80255;SDS011;69564;37.974;23.708;2023-04-23T02:23:16;6.82;;;4.78;;
80255;SDS011;69564;37.974;23.708;2023-04-23T02:25:42;5.35;;;4.55;;
80255;SDS011;69564;37.974;23.708;2023-04-23T02:28:07;5.40;;;4.43;;
80255;SDS011;69564;37.974;23.708;2023-04-23T02:30:37;5.07;;;4.57;;
80255;SDS011;69564;37.974;23.708;2023-04-23T02:33:04;6.63;;;4.78;;
80255;SDS011;69564;37.974;23.708;2023-04-23T02:35:30;7.07;;;5.00;;
80255;SDS011;69564;37.974;23.708;2023-04-23T02:37:55;5.30;;;4.75;;
80255;SDS011;69564;37.974;23.708;2023-04-23T02:40:21;6.60;;;4.78;;
80255;SDS011;69564;37.974;23.708;2023-04-23T02:42:47;6.40;;;4.80;;
80255;SDS011;69564;37.974;23.708;2023-04-23T02:45:13;5.50;;;4.80;;
80255;SDS011;69564;37.974;23.708;2023-04-23T02:47:39;5.20;;;4.03;;
80255;SDS011;69564;37.974;23.708;2023-04-23T02:50:05;7.53;;;4.30;;
80255;SDS011;69564;37.974;23.708;2023-04-23T02:52:32;5.55;;;4.45;;
80255;SDS011;69564;37.974;23.708;2023-04-23T02:54:58;6.38;;;4.70;;
80255;SDS011;69564;37.974;23.708;2023-04-23T02:57:25;5.45;;;4.68;;
80255;SDS011;69564;37.974;23.708;2023-04-23T02:59:52;5.80;;;5.07;;
80255;SDS011;69564;37.974;23.708;2023-04-23T03:02:17;6.15;;;4.50;;
80255;SDS011;69564;37.974;23.708;2023-04-23T03:04:43;6.57;;;4.63;;
80255;SDS011;69564;37.974;23.708;2023-04-23T03:07:09;7.18;;;4.95;;
80255;SDS011;69564;37.974;23.708;2023-04-23T03:09:37;6.15;;;4.43;;
80255;SDS011;69564;37.974;23.708;2023-04-23T03:12:03;5.80;;;5.00;;
80255;SDS011;69564;37.974;23.708;2023-04-23T03:14:29;5.40;;;4.90;;
80255;SDS011;69564;37.974;23.708;2023-04-23T03:16:54;5.70;;;5.00;;
80255;SDS011;69564;37.974;23.708;2023-04-23T03:19:20;6.25;;;4.75;;
80255;SDS011;69564;37.974;23.708;2023-04-23T03:21:46;6.35;;;4.97;;
80255;SDS011;69564;37.974;23.708;2023-04-23T03:24:12;6.53;;;4.68;;
80255;SDS011;69564;37.974;23.708;2023-04-23T03:26:39;6.00;;;5.05;;
80255;SDS011;69564;37.974;23.708;2023-04-23T03:29:05;6.18;;;4.60;;
80255;SDS011;69564;37.974;23.708;2023-04-23T03:31:31;5.28;;;4.78;;
80255;SDS011;69564;37.974;23.708;2023-04-23T03:33:57;5.55;;;5.05;;
80255;SDS011;69564;37.974;23.708;2023-04-23T03:36:22;7.82;;;5.07;;
80255;SDS011;69564;37.974;23.708;2023-04-23T03:38:48;6.28;;;4.90;;
80255;SDS011;69564;37.974;23.708;2023-04-23T03:41:14;7.85;;;5.15;;
80255;SDS011;69564;37.974;23.708;2023-04-23T03:43:39;6.10;;;5.03;;
80255;SDS011;69564;37.974;23.708;2023-04-23T03:46:05;7.80;;;5.15;;
80255;SDS011;69564;37.974;23.708;2023-04-23T03:48:31;5.18;;;4.38;;
80255;SDS011;69564;37.974;23.708;2023-04-23T03:50:57;7.13;;;5.00;;
80255;SDS011;69564;37.974;23.708;2023-04-23T03:53:22;6.97;;;4.85;;
80255;SDS011;69564;37.974;23.708;2023-04-23T03:55:48;6.20;;;4.65;;
80255;SDS011;69564;37.974;23.708;2023-04-23T03:58:14;6.32;;;4.90;;
80255;SDS011;69564;37.974;23.708;2023-04-23T04:00:40;5.25;;;4.75;;
80255;SDS011;69564;37.974;23.708;2023-04-23T04:03:05;5.38;;;4.55;;
80255;SDS011;69564;37.974;23.708;2023-04-23T04:05:33;5.30;;;4.57;;
80255;SDS011;69564;37.974;23.708;2023-04-23T04:07:59;5.25;;;4.40;;
80255;SDS011;69564;37.974;23.708;2023-04-23T04:10:25;6.35;;;4.75;;
80255;SDS011;69564;37.974;23.708;2023-04-23T04:12:51;4.78;;;4.38;;
80255;SDS011;69564;37.974;23.708;2023-04-23T04:15:19;5.15;;;4.65;;
80255;SDS011;69564;37.974;23.708;2023-04-23T04:17:45;4.43;;;3.90;;
80255;SDS011;69564;37.974;23.708;2023-04-23T04:20:11;5.50;;;4.88;;
80255;SDS011;69564;37.974;23.708;2023-04-23T04:22:37;3.90;;;3.50;;
80255;SDS011;69564;37.974;23.708;2023-04-23T04:25:03;4.70;;;4.22;;
80255;SDS011;69564;37.974;23.708;2023-04-23T04:27:29;6.47;;;4.20;;
80255;SDS011;69564;37.974;23.708;2023-04-23T04:29:58;6.00;;;4.22;;
80255;SDS011;69564;37.974;23.708;2023-04-23T04:32:25;5.97;;;3.92;;
80255;SDS011;69564;37.974;23.708;2023-04-23T04:34:51;6.78;;;3.83;;
80255;SDS011;69564;37.974;23.708;2023-04-23T04:37:18;7.35;;;4.25;;
80255;SDS011;69564;37.974;23.708;2023-04-23T04:39:45;5.10;;;4.07;;
80255;SDS011;69564;37.974;23.708;2023-04-23T04:42:11;5.50;;;3.92;;
80255;SDS011;69564;37.974;23.708;2023-04-23T04:44:37;6.68;;;3.72;;
80255;SDS011;69564;37.974;23.708;2023-04-23T04:47:03;4.50;;;3.80;;
80255;SDS011;69564;37.974;23.708;2023-04-23T04:49:29;7.53;;;3.92;;
80255;SDS011;69564;37.974;23.708;2023-04-23T04:51:55;3.72;;;3.42;;
80255;SDS011;69564;37.974;23.708;2023-04-23T04:54:21;4.68;;;3.63;;
80255;SDS011;69564;37.974;23.708;2023-04-23T04:56:46;5.85;;;3.40;;
80255;SDS011;69564;37.974;23.708;2023-04-23T04:59:12;4.07;;;3.53;;
80255;SDS011;69564;37.974;23.708;2023-04-23T05:01:38;5.25;;;3.58;;
80255;SDS011;69564;37.974;23.708;2023-04-23T05:04:04;5.20;;;3.60;;
80255;SDS011;69564;37.974;23.708;2023-04-23T05:06:29;3.78;;;3.47;;
80255;SDS011;69564;37.974;23.708;2023-04-23T05:08:56;4.43;;;3.60;;
80255;SDS011;69564;37.974;23.708;2023-04-23T05:11:22;6.85;;;4.13;;
80255;SDS011;69564;37.974;23.708;2023-04-23T05:13:47;3.88;;;3.30;;
80255;SDS011;69564;37.974;23.708;2023-04-23T05:16:13;3.95;;;3.17;;
80255;SDS011;69564;37.974;23.708;2023-04-23T05:18:39;4.88;;;3.58;;
80255;SDS011;69564;37.974;23.708;2023-04-23T05:21:06;6.40;;;3.63;;
80255;SDS011;69564;37.974;23.708;2023-04-23T05:23:32;5.78;;;3.53;;
80255;SDS011;69564;37.974;23.708;2023-04-23T05:25:59;3.83;;;3.33;;
80255;SDS011;69564;37.974;23.708;2023-04-23T05:28:24;6.20;;;3.65;;
80255;SDS011;69564;37.974;23.708;2023-04-23T05:30:50;4.32;;;3.53;;
80255;SDS011;69564;37.974;23.708;2023-04-23T05:33:16;4.20;;;3.80;;
80255;SDS011;69564;37.974;23.708;2023-04-23T05:35:42;3.55;;;3.17;;
80255;SDS011;69564;37.974;23.708;2023-04-23T05:38:08;3.60;;;3.20;;
80255;SDS011;69564;37.974;23.708;2023-04-23T05:40:34;4.65;;;4.22;;
80255;SDS011;69564;37.974;23.708;2023-04-23T05:43:00;4.22;;;3.60;;
80255;SDS011;69564;37.974;23.708;2023-04-23T05:45:26;4.75;;;4.25;;
80255;SDS011;69564;37.974;23.708;2023-04-23T05:47:52;4.95;;;3.55;;
80255;SDS011;69564;37.974;23.708;2023-04-23T05:50:18;4.38;;;3.38;;
80255;SDS011;69564;37.974;23.708;2023-04-23T05:52:44;3.80;;;3.45;;
80255;SDS011;69564;37.974;23.708;2023-04-23T05:55:10;3.63;;;3.33;;
80255;SDS011;69564;37.974;23.708;2023-04-23T05:57:36;3.53;;;3.22;;
80255;SDS011;69564;37.974;23.708;2023-04-23T06:00:03;4.50;;;3.63;;
80255;SDS011;69564;37.974;23.708;2023-04-23T06:02:30;4.28;;;3.55;;
80255;SDS011;69564;37.974;23.708;2023-04-23T06:04:57;3.90;;;3.60;;
80255;SDS011;69564;37.974;23.708;2023-04-23T06:07:23;3.67;;;3.38;;
80255;SDS011;69564;37.974;23.708;2023-04-23T06:09:49;3.70;;;3.42;;
80255;SDS011;69564;37.974;23.708;2023-04-23T06:12:14;4.38;;;3.35;;
80255;SDS011;69564;37.974;23.708;2023-04-23T06:14:40;4.30;;;4.00;;
80255;SDS011;69564;37.974;23.708;2023-04-23T06:17:06;4.57;;;3.85;;
80255;SDS011;69564;37.974;23.708;2023-04-23T06:19:32;4.57;;;3.95;;
80255;SDS011;69564;37.974;23.708;2023-04-23T06:21:57;3.97;;;3.67;;
80255;SDS011;69564;37.974;23.708;2023-04-23T06:24:23;6.28;;;4.00;;
80255;SDS011;69564;37.974;23.708;2023-04-23T06:26:49;4.43;;;3.70;;
80255;SDS011;69564;37.974;23.708;2023-04-23T06:29:15;4.60;;;4.07;;
80255;SDS011;69564;37.974;23.708;2023-04-23T06:31:40;4.50;;;4.03;;
80255;SDS011;69564;37.974;23.708;2023-04-23T06:34:06;4.38;;;3.67;;
80255;SDS011;69564;37.974;23.708;2023-04-23T06:36:32;4.20;;;3.80;;
80255;SDS011;69564;37.974;23.708;2023-04-23T06:38:57;3.67;;;3.38;;
80255;SDS011;69564;37.974;23.708;2023-04-23T06:41:23;3.80;;;3.45;;
80255;SDS011;69564;37.974;23.708;2023-04-23T06:43:49;4.40;;;4.07;;
80255;SDS011;69564;37.974;23.708;2023-04-23T06:46:15;4.28;;;3.75;;
80255;SDS011;69564;37.974;23.708;2023-04-23T06:48:40;4.47;;;4.07;;
80255;SDS011;69564;37.974;23.708;2023-04-23T06:51:06;4.15;;;3.75;;
80255;SDS011;69564;37.974;23.708;2023-04-23T06:53:32;4.00;;;3.67;;
80255;SDS011;69564;37.974;23.708;2023-04-23T06:55:58;4.90;;;4.43;;
80255;SDS011;69564;37.974;23.708;2023-04-23T06:58:24;4.72;;;4.20;;
80255;SDS011;69564;37.974;23.708;2023-04-23T07:00:55;4.40;;;4.00;;
80255;SDS011;69564;37.974;23.708;2023-04-23T07:03:24;6.20;;;4.25;;
80255;SDS011;69564;37.974;23.708;2023-04-23T07:05:52;4.28;;;3.88;;
80255;SDS011;69564;37.974;23.708;2023-04-23T07:08:18;4.95;;;4.03;;
80255;SDS011;69564;37.974;23.708;2023-04-23T07:10:45;4.85;;;4.45;;
80255;SDS011;69564;37.974;23.708;2023-04-23T07:13:11;4.32;;;3.92;;
80255;SDS011;69564;37.974;23.708;2023-04-23T07:15:36;4.10;;;3.70;;
80255;SDS011;69564;37.974;23.708;2023-04-23T07:18:02;4.40;;;4.00;;
80255;SDS011;69564;37.974;23.708;2023-04-23T07:20:29;4.45;;;4.13;;
80255;SDS011;69564;37.974;23.708;2023-04-23T07:22:54;5.10;;;4.00;;
80255;SDS011;69564;37.974;23.708;2023-04-23T07:25:22;4.25;;;3.85;;
80255;SDS011;69564;37.974;23.708;2023-04-23T07:27:49;5.45;;;4.05;;
80255;SDS011;69564;37.974;23.708;2023-04-23T07:30:15;5.40;;;4.90;;
80255;SDS011;69564;37.974;23.708;2023-04-23T07:32:41;5.20;;;4.38;;
80255;SDS011;69564;37.974;23.708;2023-04-23T07:35:07;4.38;;;3.95;;
80255;SDS011;69564;37.974;23.708;2023-04-23T07:37:35;4.75;;;4.30;;
80255;SDS011;69564;37.974;23.708;2023-04-23T07:40:01;5.07;;;4.55;;
80255;SDS011;69564;37.974;23.708;2023-04-23T07:42:29;4.82;;;4.38;;
80255;SDS011;69564;37.974;23.708;2023-04-23T07:44:55;5.10;;;4.63;;
80255;SDS011;69564;37.974;23.708;2023-04-23T07:47:21;4.70;;;4.30;;
80255;SDS011;69564;37.974;23.708;2023-04-23T07:49:47;4.50;;;4.13;;
80255;SDS011;69564;37.974;23.708;2023-04-23T07:52:12;5.47;;;4.57;;
80255;SDS011;69564;37.974;23.708;2023-04-23T07:54:39;5.47;;;4.63;;
80255;SDS011;69564;37.974;23.708;2023-04-23T07:57:05;4.70;;;4.30;;
80255;SDS011;69564;37.974;23.708;2023-04-23T07:59:30;5.30;;;4.80;;
80255;SDS011;69564;37.974;23.708;2023-04-23T08:01:56;4.85;;;4.45;;
80255;SDS011;69564;37.974;23.708;2023-04-23T08:04:22;4.85;;;4.35;;
80255;SDS011;69564;37.974;23.708;2023-04-23T08:06:48;5.40;;;4.30;;
80255;SDS011;69564;37.974;23.708;2023-04-23T08:09:14;5.68;;;4.90;;
80255;SDS011;69564;37.974;23.708;2023-04-23T08:11:40;4.65;;;4.32;;
80255;SDS011;69564;37.974;23.708;2023-04-23T08:14:06;4.45;;;4.05;;
80255;SDS011;69564;37.974;23.708;2023-04-23T08:16:31;6.60;;;4.50;;
80255;SDS011;69564;37.974;23.708;2023-04-23T08:18:57;4.47;;;4.07;;
80255;SDS011;69564;37.974;23.708;2023-04-23T08:21:24;4.78;;;4.38;;
80255;SDS011;69564;37.974;23.708;2023-04-23T08:23:51;5.20;;;3.97;;
80255;SDS011;69564;37.974;23.708;2023-04-23T08:26:17;4.80;;;4.32;;
80255;SDS011;69564;37.974;23.708;2023-04-23T08:28:43;5.20;;;4.80;;
80255;SDS011;69564;37.974;23.708;2023-04-23T08:31:10;4.97;;;4.35;;
80255;SDS011;69564;37.974;23.708;2023-04-23T08:33:36;4.80;;;4.40;;
80255;SDS011;69564;37.974;23.708;2023-04-23T08:36:02;4.22;;;3.92;;
80255;SDS011;69564;37.974;23.708;2023-04-23T08:38:28;5.53;;;4.22;;
80255;SDS011;69564;37.974;23.708;2023-04-23T08:40:55;5.70;;;4.32;;
80255;SDS011;69564;37.974;23.708;2023-04-23T08:43:26;4.10;;;3.72;;
80255;SDS011;69564;37.974;23.708;2023-04-23T08:46:20;5.47;;;4.80;;
80255;SDS011;69564;37.974;23.708;2023-04-23T08:48:47;5.28;;;4.78;;
80255;SDS011;69564;37.974;23.708;2023-04-23T08:51:17;4.72;;;4.28;;
80255;SDS011;69564;37.974;23.708;2023-04-23T08:53:45;5.20;;;4.22;;
80255;SDS011;69564;37.974;23.708;2023-04-23T08:56:16;5.60;;;4.30;;
80255;SDS011;69564;37.974;23.708;2023-04-23T08:58:43;4.97;;;4.20;;
80255;SDS011;69564;37.974;23.708;2023-04-23T09:01:11;6.38;;;4.85;;
80255;SDS011;69564;37.974;23.708;2023-04-23T09:03:37;5.50;;;4.75;;
80255;SDS011;69564;37.974;23.708;2023-04-23T09:06:04;4.88;;;4.47;;
80255;SDS011;69564;37.974;23.708;2023-04-23T09:08:30;4.13;;;3.72;;
80255;SDS011;69564;37.974;23.708;2023-04-23T09:10:57;5.70;;;5.00;;
80255;SDS011;69564;37.974;23.708;2023-04-23T09:13:26;4.65;;;4.25;;
80255;SDS011;69564;37.974;23.708;2023-04-23T09:15:54;5.65;;;4.32;;
80255;SDS011;69564;37.974;23.708;2023-04-23T09:18:20;6.00;;;4.15;;
80255;SDS011;69564;37.974;23.708;2023-04-23T09:20:45;5.00;;;4.50;;
80255;SDS011;69564;37.974;23.708;2023-04-23T09:23:14;4.53;;;4.13;;
80255;SDS011;69564;37.974;23.708;2023-04-23T09:25:40;4.88;;;4.40;;
80255;SDS011;69564;37.974;23.708;2023-04-23T09:28:07;5.63;;;4.60;;
80255;SDS011;69564;37.974;23.708;2023-04-23T09:30:44;6.32;;;4.88;;
80255;SDS011;69564;37.974;23.708;2023-04-23T09:33:12;5.28;;;4.72;;
80255;SDS011;69564;37.974;23.708;2023-04-23T09:35:40;5.22;;;4.22;;
80255;SDS011;69564;37.974;23.708;2023-04-23T09:38:07;5.25;;;4.32;;
80255;SDS011;69564;37.974;23.708;2023-04-23T09:40:34;4.80;;;4.40;;
80255;SDS011;69564;37.974;23.708;2023-04-23T09:43:02;4.68;;;4.18;;
80255;SDS011;69564;37.974;23.708;2023-04-23T09:45:29;5.28;;;4.68;;
80255;SDS011;69564;37.974;23.708;2023-04-23T09:47:56;4.80;;;4.40;;
80255;SDS011;69564;37.974;23.708;2023-04-23T09:50:32;5.47;;;4.70;;
80255;SDS011;69564;37.974;23.708;2023-04-23T09:53:00;5.75;;;5.00;;
80255;SDS011;69564;37.974;23.708;2023-04-23T09:57:59;4.82;;;4.43;;
80255;SDS011;69564;37.974;23.708;2023-04-23T10:00:27;5.85;;;4.55;;
80255;SDS011;69564;37.974;23.708;2023-04-23T10:03:00;5.13;;;4.63;;
80255;SDS011;69564;37.974;23.708;2023-04-23T10:05:26;5.47;;;4.97;;
80255;SDS011;69564;37.974;23.708;2023-04-23T10:07:52;5.18;;;4.65;;
80255;SDS011;69564;37.974;23.708;2023-04-23T10:10:21;5.22;;;4.72;;
80255;SDS011;69564;37.974;23.708;2023-04-23T10:12:46;4.95;;;4.55;;
80255;SDS011;69564;37.974;23.708;2023-04-23T10:15:13;5.30;;;4.80;;
80255;SDS011;69564;37.974;23.708;2023-04-23T10:17:39;6.18;;;5.00;;
80255;SDS011;69564;37.974;23.708;2023-04-23T10:20:06;5.28;;;4.63;;
80255;SDS011;69564;37.974;23.708;2023-04-23T10:22:33;5.53;;;5.07;;
80255;SDS011;69564;37.974;23.708;2023-04-23T10:25:05;5.32;;;4.82;;
80255;SDS011;69564;37.974;23.708;2023-04-23T10:27:38;5.45;;;4.95;;
80255;SDS011;69564;37.974;23.708;2023-04-23T10:30:06;5.82;;;5.22;;
80255;SDS011;69564;37.974;23.708;2023-04-23T10:32:33;5.00;;;4.50;;
80255;SDS011;69564;37.974;23.708;2023-04-23T10:34:59;5.07;;;4.68;;
80255;SDS011;69564;37.974;23.708;2023-04-23T10:37:25;5.55;;;5.05;;
80255;SDS011;69564;37.974;23.708;2023-04-23T10:39:53;5.30;;;4.90;;
80255;SDS011;69564;37.974;23.708;2023-04-23T10:42:20;5.63;;;5.15;;
80255;SDS011;69564;37.974;23.708;2023-04-23T10:44:47;5.55;;;4.70;;
80255;SDS011;69564;37.974;23.708;2023-04-23T10:47:14;5.60;;;5.10;;
80255;SDS011;69564;37.974;23.708;2023-04-23T10:49:40;5.60;;;5.20;;
80255;SDS011;69564;37.974;23.708;2023-04-23T10:52:08;6.10;;;4.82;;
80255;SDS011;69564;37.974;23.708;2023-04-23T10:54:39;6.45;;;5.85;;
80255;SDS011;69564;37.974;23.708;2023-04-23T10:57:07;6.75;;;6.15;;
80255;SDS011;69564;37.974;23.708;2023-04-23T10:59:35;5.95;;;5.35;;
80255;SDS011;69564;37.974;23.708;2023-04-23T11:02:07;6.72;;;5.13;;
80255;SDS011;69564;37.974;23.708;2023-04-23T11:04:35;6.57;;;5.05;;
80255;SDS011;69564;37.974;23.708;2023-04-23T11:07:13;6.45;;;5.22;;
80255;SDS011;69564;37.974;23.708;2023-04-23T11:17:11;7.40;;;5.80;;
80255;SDS011;69564;37.974;23.708;2023-04-23T11:19:37;6.80;;;6.20;;
80255;SDS011;69564;37.974;23.708;2023-04-23T11:24:33;7.15;;;6.30;;
80255;SDS011;69564;37.974;23.708;2023-04-23T11:27:09;6.63;;;5.82;;
80255;SDS011;69564;37.974;23.708;2023-04-23T11:29:39;8.68;;;5.38;;
80255;SDS011;69564;37.974;23.708;2023-04-23T11:32:06;5.70;;;5.28;;
80255;SDS011;69564;37.974;23.708;2023-04-23T11:34:40;5.90;;;5.15;;
80255;SDS011;69564;37.974;23.708;2023-04-23T11:37:11;6.80;;;5.78;;
80255;SDS011;69564;37.974;23.708;2023-04-23T11:39:39;6.25;;;5.18;;
80255;SDS011;69564;37.974;23.708;2023-04-23T11:42:09;6.32;;;5.22;;
80255;SDS011;69564;37.974;23.708;2023-04-23T11:44:43;6.88;;;5.70;;
80255;SDS011;69564;37.974;23.708;2023-04-23T11:47:10;6.35;;;5.80;;
80255;SDS011;69564;37.974;23.708;2023-04-23T11:49:37;5.28;;;4.80;;
80255;SDS011;69564;37.974;23.708;2023-04-23T11:52:04;5.78;;;5.28;;
80255;SDS011;69564;37.974;23.708;2023-04-23T11:54:30;5.93;;;5.43;;
80255;SDS011;69564;37.974;23.708;2023-04-23T11:56:56;5.70;;;5.20;;
80255;SDS011;69564;37.974;23.708;2023-04-23T11:59:25;6.13;;;5.53;;
80255;SDS011;69564;37.974;23.708;2023-04-23T12:01:55;5.50;;;5.00;;
80255;SDS011;69564;37.974;23.708;2023-04-23T12:04:26;6.50;;;5.70;;
80255;SDS011;69564;37.974;23.708;2023-04-23T12:06:54;5.78;;;5.28;;
80255;SDS011;69564;37.974;23.708;2023-04-23T12:09:21;7.47;;;5.30;;
80255;SDS011;69564;37.974;23.708;2023-04-23T12:11:48;5.97;;;5.47;;
80255;SDS011;69564;37.974;23.708;2023-04-23T12:14:15;8.13;;;5.53;;
80255;SDS011;69564;37.974;23.708;2023-04-23T12:16:42;5.70;;;5.30;;
80255;SDS011;69564;37.974;23.708;2023-04-23T12:21:46;6.38;;;5.55;;
80255;SDS011;69564;37.974;23.708;2023-04-23T12:24:13;6.00;;;5.50;;
80255;SDS011;69564;37.974;23.708;2023-04-23T12:26:39;6.28;;;5.63;;
80255;SDS011;69564;37.974;23.708;2023-04-23T12:29:06;5.13;;;4.63;;
80255;SDS011;69564;37.974;23.708;2023-04-23T12:31:32;5.78;;;5.38;;
80255;SDS011;69564;37.974;23.708;2023-04-23T12:36:34;5.47;;;4.93;;
80255;SDS011;69564;37.974;23.708;2023-04-23T12:41:59;5.20;;;4.80;;
80255;SDS011;69564;37.974;23.708;2023-04-23T12:47:00;4.85;;;4.45;;
80255;SDS011;69564;37.974;23.708;2023-04-23T12:51:56;5.32;;;4.93;;
80255;SDS011;69564;37.974;23.708;2023-04-23T12:54:25;5.10;;;4.63;;
80255;SDS011;69564;37.974;23.708;2023-04-23T12:56:55;5.35;;;4.85;;
80255;SDS011;69564;37.974;23.708;2023-04-23T12:59:22;5.30;;;4.70;;
80255;SDS011;69564;37.974;23.708;2023-04-23T13:01:48;4.80;;;4.40;;
80255;SDS011;69564;37.974;23.708;2023-04-23T13:04:15;5.28;;;4.88;;
80255;SDS011;69564;37.974;23.708;2023-04-23T13:06:41;5.10;;;4.68;;
80255;SDS011;69564;37.974;23.708;2023-04-23T13:09:07;4.90;;;4.50;;
80255;SDS011;69564;37.974;23.708;2023-04-23T13:11:34;4.85;;;4.45;;
80255;SDS011;69564;37.974;23.708;2023-04-23T13:14:01;5.50;;;5.00;;
80255;SDS011;69564;37.974;23.708;2023-04-23T13:16:28;5.35;;;4.95;;
80255;SDS011;69564;37.974;23.708;2023-04-23T13:18:54;5.00;;;4.60;;
80255;SDS011;69564;37.974;23.708;2023-04-23T13:21:20;5.10;;;4.70;;
80255;SDS011;69564;37.974;23.708;2023-04-23T13:23:46;5.38;;;4.97;;
80255;SDS011;69564;37.974;23.708;2023-04-23T13:26:12;5.00;;;4.60;;
80255;SDS011;69564;37.974;23.708;2023-04-23T13:28:38;5.50;;;5.00;;
80255;SDS011;69564;37.974;23.708;2023-04-23T13:31:04;5.53;;;4.95;;
80255;SDS011;69564;37.974;23.708;2023-04-23T13:33:30;5.53;;;5.03;;
80255;SDS011;69564;37.974;23.708;2023-04-23T13:35:57;5.22;;;4.78;;
80255;SDS011;69564;37.974;23.708;2023-04-23T13:38:24;5.72;;;4.85;;
80255;SDS011;69564;37.974;23.708;2023-04-23T13:40:51;5.38;;;4.93;;
80255;SDS011;69564;37.974;23.708;2023-04-23T13:43:17;5.43;;;4.93;;
80255;SDS011;69564;37.974;23.708;2023-04-23T13:45:44;5.85;;;4.72;;
80255;SDS011;69564;37.974;23.708;2023-04-23T13:48:13;5.43;;;4.80;;
80255;SDS011;69564;37.974;23.708;2023-04-23T13:50:40;4.75;;;4.35;;
80255;SDS011;69564;37.974;23.708;2023-04-23T13:53:07;5.30;;;4.85;;
80255;SDS011;69564;37.974;23.708;2023-04-23T13:55:33;4.88;;;4.47;;
80255;SDS011;69564;37.974;23.708;2023-04-23T13:57:59;5.05;;;4.63;;
80255;SDS011;69564;37.974;23.708;2023-04-23T14:00:25;5.50;;;5.00;;
80255;SDS011;69564;37.974;23.708;2023-04-23T14:02:52;5.38;;;4.90;;
80255;SDS011;69564;37.974;23.708;2023-04-23T14:05:18;5.03;;;4.63;;
80255;SDS011;69564;37.974;23.708;2023-04-23T14:07:43;5.22;;;4.72;;
80255;SDS011;69564;37.974;23.708;2023-04-23T14:10:09;5.43;;;5.03;;
80255;SDS011;69564;37.974;23.708;2023-04-23T14:12:36;5.10;;;4.70;;
80255;SDS011;69564;37.974;23.708;2023-04-23T14:15:03;5.53;;;4.93;;
80255;SDS011;69564;37.974;23.708;2023-04-23T14:17:30;5.03;;;4.63;;
80255;SDS011;69564;37.974;23.708;2023-04-23T14:19:56;5.40;;;4.90;;
80255;SDS011;69564;37.974;23.708;2023-04-23T14:22:22;4.93;;;4.53;;
80255;SDS011;69564;37.974;23.708;2023-04-23T14:24:55;5.00;;;4.50;;
80255;SDS011;69564;37.974;23.708;2023-04-23T14:27:25;5.00;;;4.60;;
80255;SDS011;69564;37.974;23.708;2023-04-23T14:32:19;5.40;;;4.93;;
80255;SDS011;69564;37.974;23.708;2023-04-23T14:34:45;5.10;;;4.70;;
80255;SDS011;69564;37.974;23.708;2023-04-23T14:37:11;5.13;;;4.68;;
80255;SDS011;69564;37.974;23.708;2023-04-23T14:39:37;5.13;;;4.63;;
80255;SDS011;69564;37.974;23.708;2023-04-23T14:42:03;5.65;;;5.10;;
80255;SDS011;69564;37.974;23.708;2023-04-23T14:44:29;5.00;;;4.65;;
80255;SDS011;69564;37.974;23.708;2023-04-23T14:46:54;5.40;;;5.00;;
80255;SDS011;69564;37.974;23.708;2023-04-23T14:49:20;5.32;;;4.93;;
80255;SDS011;69564;37.974;23.708;2023-04-23T14:51:50;5.45;;;4.95;;
80255;SDS011;69564;37.974;23.708;2023-04-23T14:54:19;5.13;;;4.63;;
80255;SDS011;69564;37.974;23.708;2023-04-23T14:56:46;5.43;;;4.93;;
80255;SDS011;69564;37.974;23.708;2023-04-23T14:59:11;6.03;;;5.53;;